This is the latest recevied weather packets stored in our database for station/object K0BL. If no packets are shown the sender has not sent any weather packets the latest 10 day(s).
| Time | Temp. | Humidity | Pressure | Rain* | Wind** | Luminosity | Snow |
|---|---|---|---|---|---|---|---|
| 1777998259 | 13.33° C | 47% | 1009.8 hPa | 0 mm | - | 302 W/m² | - |
| 1777994855 | 11.67° C | 54% | 1009.5 hPa | 0 mm | - | 261 W/m² | - |
| 1777993300 | 11.11° C | 53% | 1009.5 hPa | 0 mm | - | 240 W/m² | - |
| 1777992701 | 11.11° C | 54% | 1009.5 hPa | 0 mm | - | 165 W/m² | - |
| 1777991195 | 11.11° C | 56% | 1008.9 hPa | 0 mm | - | 207 W/m² | - |
| 1777989996 | 11.11° C | 58% | 1008.7 hPa | 0 mm | - | 153 W/m² | - |
| 1777987290 | 11.11° C | 62% | 1008.1 hPa | 0 mm | - | 259 W/m² | - |
| 1777981879 | 8.33° C | 79% | 1008.9 hPa | 0 mm | - | 33 W/m² | - |
| 1777979477 | 8.89° C | 76% | 1008.9 hPa | 0 mm | - | 0 W/m² | - |
| 1777978578 | 8.89° C | 71% | 1008.7 hPa | 0 mm | - | 0 W/m² | - |
| 1777974944 | 10° C | 64% | 1006.9 hPa | 0 mm | - | 0 W/m² | - |
| 1777974642 | 10° C | 61% | 1006.8 hPa | 0 mm | - | 0 W/m² | - |
| 1777970872 | 11.11° C | 55% | 1006.8 hPa | 0 mm | - | 0 W/m² | - |
| 1777969352 | 11.11° C | 55% | 1006.3 hPa | 0 mm | - | 0 W/m² | - |
| 1777969043 | 11.11° C | 54% | 1005.9 hPa | 0 mm | - | 0 W/m² | - |
| 1777965107 | 11.67° C | 53% | 1006.2 hPa | 0 mm | - | 0 W/m² | - |
| 1777959997 | 13.33° C | 50% | 1004.1 hPa | 0 mm | - | 0 W/m² | - |
| 1777955789 | 14.44° C | 47% | 1003.4 hPa | 0 mm | - | 0 W/m² | - |
| 1777947379 | 19.44° C | 40% | 1001.6 hPa | 0 mm | - | 0 W/m² | - |
| 1777944374 | 21.67° C | 38% | 999.9 hPa | 0 mm | - | 0 W/m² | - |
| 1777940714 | 24.44° C | 35% | 998.2 hPa | 0 mm | - | 33 W/m² | - |
| 1777938912 | 27.22° C | 36% | 997.4 hPa | 0 mm | - | 101 W/m² | - |
| 1777938311 | 27.78° C | 33% | 996.9 hPa | 0 mm | - | 128 W/m² | - |
| 1777934407 | 26.67° C | 42% | 996.9 hPa | 0 mm | - | 173 W/m² | - |
| 1777932610 | 27.22° C | 41% | 996.9 hPa | 0 mm | - | 132 W/m² | - |
* Rain latest hour (hover to see other rain measurements)
** Current wind speed in m/s (hover to see current wind gust speed)